createdAt,value
2023-05-05T05:20:20.058Z,568.00
2023-05-05T05:21:49.758Z,588.00
2023-05-05T05:23:19.442Z,608.00
2023-05-05T05:24:49.098Z,588.00
2023-05-05T05:26:18.770Z,592.00
2023-05-05T05:33:45.058Z,616.00
2023-05-05T05:35:14.732Z,544.00
2023-05-05T05:36:44.396Z,644.00
2023-05-05T05:47:39.211Z,656.00
2023-05-05T05:49:08.860Z,592.00
2023-05-05T05:50:38.588Z,660.00
2023-05-05T05:52:08.227Z,676.00
2023-05-05T05:53:37.888Z,652.00
2023-05-05T05:55:07.602Z,668.00
2023-05-05T05:56:37.243Z,632.00
2023-05-05T05:58:06.903Z,652.00
2023-05-05T05:59:36.572Z,628.00
2023-05-05T06:01:06.262Z,776.00
2023-05-05T06:02:36.394Z,920.00
2023-05-05T06:25:22.713Z,792.00
2023-05-05T06:26:52.439Z,872.00
2023-05-05T06:28:22.120Z,836.00
2023-05-05T06:29:51.801Z,888.00
2023-05-05T06:31:21.533Z,712.00
2023-05-05T06:32:51.180Z,808.00
2023-05-05T06:59:37.106Z,1376.00
2023-05-05T07:01:06.884Z,1320.00
2023-05-05T07:02:36.529Z,1352.00
2023-05-05T07:04:06.220Z,1176.00
2023-05-05T07:05:36.045Z,1344.00
2023-05-05T07:07:05.783Z,1340.00
2023-05-05T07:08:35.610Z,1380.00
2023-05-05T09:28:41.001Z,1664.00
2023-05-05T09:30:10.729Z,1636.00
2023-05-05T09:31:40.400Z,1624.00
2023-05-05T09:33:10.122Z,1616.00
2023-05-05T09:34:39.759Z,1608.00
2023-05-05T10:50:59.953Z,2180.00
2023-05-05T10:52:29.829Z,2296.00
2023-05-05T10:53:59.582Z,2472.00
2023-05-05T10:55:29.386Z,2420.00
2023-05-05T10:56:59.121Z,2348.00
2023-05-05T10:58:28.758Z,2392.00
2023-05-05T10:59:58.524Z,2340.00
2023-05-05T11:01:29.220Z,2372.00
2023-05-05T11:02:58.945Z,2364.00
2023-05-05T11:04:29.477Z,2412.00
2023-05-05T11:05:59.169Z,2420.00
2023-05-05T11:07:28.846Z,2468.00
2023-05-05T11:25:30.382Z,3748.00
2023-05-05T11:27:00.040Z,3992.00
2023-05-05T11:28:30.017Z,3768.00
2023-05-05T11:29:59.689Z,4012.00
2023-05-05T11:31:29.436Z,3220.00
2023-05-05T12:18:02.772Z,4012.00
2023-05-05T12:19:30.640Z,3876.00
2023-05-05T12:21:00.277Z,3872.00
2023-05-05T12:22:29.955Z,4092.00
2023-05-05T12:23:59.636Z,3884.00
2023-05-05T12:40:21.412Z,8160.00
2023-05-05T12:41:51.090Z,8740.00
2023-05-05T13:27:52.310Z,12200.00
2023-05-05T13:29:23.534Z,21248.00
2023-05-05T13:30:51.798Z,8164.00
2023-05-05T13:32:21.328Z,7136.00
2023-05-05T13:33:51.005Z,6588.00
2023-05-05T13:35:20.671Z,12532.00
2023-05-05T13:36:50.344Z,12596.00
2023-05-05T13:38:20.001Z,13092.00
2023-05-05T13:39:49.684Z,16288.00
2023-05-05T13:41:19.346Z,16704.00
2023-05-05T13:42:49.008Z,8188.00
2023-05-05T13:44:18.983Z,12672.00
2023-05-05T13:45:48.687Z,14048.00
2023-05-05T13:47:18.466Z,23936.00
2023-05-05T14:35:00.551Z,3020.00
2023-05-05T14:36:30.188Z,2976.00
2023-05-05T14:37:59.878Z,2724.00
